Libertad Seis — EA7797 — position and weather

sailwx.info

Track history (hours):
 
Tides and Currents Weather Stations Pressure Air Temp Water Temp Dewpoint Dewpoint Depression Visibility Wind Speed Wind Dir Waves Ship Positions

Libertad Seis

Last reported at 2018-Feb-22 07:00 UTC. Time now 2018-Feb-22 10:22 UTC.
Position N 36°07' W 005°24'.

Length 24 m; draft 2.8 m.

Type: Tug. MMSI: 224194220.

Date/timePositionNaut miles runAvg speedWind from/ knotsBaromVisibWave heightAir tempDewpointWater temp
2018-Feb-22 07:00N 36°07' W 005°24'0 0.0
2018-Feb-22 06:30N 36°07' W 005°24'0 0.0
2018-Feb-22 06:00N 36°07' W 005°24'0 0.0
2018-Feb-22 05:27N 36°07' W 005°24'0 0.0
2018-Feb-22 05:00N 36°07' W 005°24'0 0.0
2018-Feb-22 04:28N 36°07' W 005°24'0 0.0
2018-Feb-22 03:59N 36°07' W 005°24'0 0.0
2018-Feb-22 03:25N 36°07' W 005°24'0 0.0
2018-Feb-22 03:00N 36°07' W 005°24'0 0.0
2018-Feb-22 02:30N 36°07' W 005°24'0 0.0
2018-Feb-22 02:00N 36°07' W 005°24'0 0.0
2018-Feb-22 01:30N 36°07' W 005°24'0 0.0
2018-Feb-22 00:58N 36°07' W 005°24'0 0.0
2018-Feb-22 00:30N 36°07' W 005°24'0 0.0
2018-Feb-22 00:00N 36°07' W 005°24'0 0.0
2018-Feb-21 23:30N 36°07' W 005°24'0 0.0
2018-Feb-21 22:59N 36°07' W 005°24'0 0.0
2018-Feb-21 22:30N 36°07' W 005°24'0 0.0
2018-Feb-21 22:00N 36°07' W 005°24'0 0.0
2018-Feb-21 21:30N 36°07' W 005°24'0 0.0
2018-Feb-21 21:00N 36°07' W 005°24'0 0.0
2018-Feb-21 20:30N 36°07' W 005°24'0 0.0
2018-Feb-21 19:59N 36°07' W 005°24'0 0.0
2018-Feb-21 01:57N 36°07' W 005°24'0 0.0
2018-Feb-21 01:27N 36°07' W 005°24'0 0.0
2018-Feb-21 00:59N 36°07' W 005°24'0 0.0
2018-Feb-21 00:30N 36°07' W 005°24'0 0.0
2018-Feb-20 23:56N 36°07' W 005°24'0 0.0
2018-Feb-20 23:29N 36°07' W 005°24'0 0.0
2018-Feb-20 22:55N 36°07' W 005°24'0 0.0
2018-Feb-20 22:30N 36°07' W 005°24'0 0.0
2018-Feb-20 21:54N 36°07' W 005°24'0 0.0
2018-Feb-20 21:29N 36°07' W 005°24'0 0.0
2018-Feb-20 21:00N 36°07' W 005°24'0 0.0
2018-Feb-20 20:29N 36°07' W 005°24'0 0.0
2018-Feb-20 20:00N 36°07' W 005°24'0 0.0
2018-Feb-20 19:29N 36°07' W 005°24'0 0.0
2018-Feb-20 19:00N 36°07' W 005°24'0 0.0
2018-Feb-20 06:53N 36°07' W 005°24'0 0.0
2018-Feb-20 04:48N 36°07' W 005°24'0 0.0
2018-Feb-20 04:30N 36°07' W 005°24'0 0.0
2018-Feb-19 23:16N 36°07' W 005°24'0 0.0
2018-Feb-19 22:58N 36°07' W 005°24'0 0.0
2018-Feb-19 22:23N 36°07' W 005°24'0 0.0
2018-Feb-19 15:44N 36°07' W 005°24'0 0.0
2018-Feb-19 15:23N 36°07' W 005°24'0 0.0
2018-Feb-19 13:47N 36°07' W 005°24'0 0.0
2018-Feb-19 13:21N 36°07' W 005°24'0 0.0
2018-Feb-19 09:50N 36°07' W 005°24'0 0.0
2018-Feb-19 09:26N 36°07' W 005°24'  
2018-Feb-15 01:34N 36°08' W 005°27'0 0.6
2018-Feb-15 01:30N 36°08' W 005°27'3 4.3
2018-Feb-15 00:48N 36°10' W 005°24'2 7.4
2018-Feb-15 00:30N 36°09' W 005°26'1 2.1
2018-Feb-15 00:00N 36°08' W 005°27'0 0.0
2018-Feb-14 17:23N 36°08' W 005°27'0 0.9
2018-Feb-14 17:00N 36°08' W 005°26'0 0.0
2018-Feb-14 16:30N 36°08' W 005°26'0 0.3
2018-Feb-14 15:59N 36°08' W 005°26'0 0.0
2018-Feb-14 15:30N 36°08' W 005°26'0 0.0
2018-Feb-14 14:57N 36°08' W 005°26'0 0.0
2018-Feb-14 14:30N 36°08' W 005°26'0 0.0
2018-Feb-14 13:30N 36°08' W 005°26'0 0.0
2018-Feb-14 12:55N 36°08' W 005°26'0 0.0
2018-Feb-14 12:29N 36°08' W 005°26'0 0.0
2018-Feb-14 11:51N 36°08' W 005°26'0 0.1
2018-Feb-14 11:30N 36°08' W 005°26'0 0.0
2018-Feb-14 11:00N 36°08' W 005°26'0 0.2
2018-Feb-14 10:30N 36°08' W 005°26'0 0.0
2018-Feb-14 09:57N 36°08' W 005°26'0 0.0
2018-Feb-13 05:39N 36°08' W 005°26'0 0.1
2018-Feb-13 05:29N 36°08' W 005°26'0 0.0
2018-Feb-13 04:59N 36°08' W 005°26'0 0.1
2018-Feb-13 04:30N 36°08' W 005°26'0 0.0
2018-Feb-13 04:00N 36°08' W 005°26'0 0.1
2018-Feb-13 03:30N 36°08' W 005°26'0 0.2
2018-Feb-13 03:00N 36°08' W 005°26'0 0.7
2018-Feb-13 02:30N 36°09' W 005°26'0 1.0
2018-Feb-13 02:00N 36°09' W 005°27'0 0.0
2018-Feb-12 12:48N 36°09' W 005°26'2 5.2
2018-Feb-12 12:21N 36°07' W 005°24'0 0.8
2018-Feb-12 11:59N 36°07' W 005°24'0 0.9
2018-Feb-12 11:30N 36°07' W 005°24'0 0.3
2018-Feb-12 10:19N 36°07' W 005°24'  
Track history (hours):
 
Tides and Currents Weather Stations Pressure Air Temp Water Temp Dewpoint Dewpoint Depression Visibility Wind Speed Wind Dir Waves Ship Positions

Libertad Seis

Last reported at 2018-Feb-22 07:00 UTC. Time now 2018-Feb-22 10:22 UTC.
Position N 36°07' W 005°24'.

Length 24 m; draft 2.8 m.

Type: Tug. MMSI: 224194220.

Date/timePositionNaut miles runAvg speedWind from/ knotsBaromVisibWave heightAir tempDewpointWater temp
2018-Feb-22 07:00N 36°07' W 005°24'0 0.0
2018-Feb-22 06:30N 36°07' W 005°24'0 0.0
2018-Feb-22 06:00N 36°07' W 005°24'0 0.0
2018-Feb-22 05:27N 36°07' W 005°24'0 0.0
2018-Feb-22 05:00N 36°07' W 005°24'0 0.0
2018-Feb-22 04:28N 36°07' W 005°24'0 0.0
2018-Feb-22 03:59N 36°07' W 005°24'0 0.0
2018-Feb-22 03:25N 36°07' W 005°24'0 0.0
2018-Feb-22 03:00N 36°07' W 005°24'0 0.0
2018-Feb-22 02:30N 36°07' W 005°24'0 0.0
2018-Feb-22 02:00N 36°07' W 005°24'0 0.0
2018-Feb-22 01:30N 36°07' W 005°24'0 0.0
2018-Feb-22 00:58N 36°07' W 005°24'0 0.0
2018-Feb-22 00:30N 36°07' W 005°24'0 0.0
2018-Feb-22 00:00N 36°07' W 005°24'0 0.0
2018-Feb-21 23:30N 36°07' W 005°24'0 0.0
2018-Feb-21 22:59N 36°07' W 005°24'0 0.0
2018-Feb-21 22:30N 36°07' W 005°24'0 0.0
2018-Feb-21 22:00N 36°07' W 005°24'0 0.0
2018-Feb-21 21:30N 36°07' W 005°24'0 0.0
2018-Feb-21 21:00N 36°07' W 005°24'0 0.0
2018-Feb-21 20:30N 36°07' W 005°24'0 0.0
2018-Feb-21 19:59N 36°07' W 005°24'0 0.0
2018-Feb-21 01:57N 36°07' W 005°24'0 0.0
2018-Feb-21 01:27N 36°07' W 005°24'0 0.0
2018-Feb-21 00:59N 36°07' W 005°24'0 0.0
2018-Feb-21 00:30N 36°07' W 005°24'0 0.0
2018-Feb-20 23:56N 36°07' W 005°24'0 0.0
2018-Feb-20 23:29N 36°07' W 005°24'0 0.0
2018-Feb-20 22:55N 36°07' W 005°24'0 0.0
2018-Feb-20 22:30N 36°07' W 005°24'0 0.0
2018-Feb-20 21:54N 36°07' W 005°24'0 0.0
2018-Feb-20 21:29N 36°07' W 005°24'0 0.0
2018-Feb-20 21:00N 36°07' W 005°24'0 0.0
2018-Feb-20 20:29N 36°07' W 005°24'0 0.0
2018-Feb-20 20:00N 36°07' W 005°24'0 0.0
2018-Feb-20 19:29N 36°07' W 005°24'0 0.0
2018-Feb-20 19:00N 36°07' W 005°24'0 0.0
2018-Feb-20 06:53N 36°07' W 005°24'0 0.0
2018-Feb-20 04:48N 36°07' W 005°24'0 0.0
2018-Feb-20 04:30N 36°07' W 005°24'0 0.0
2018-Feb-19 23:16N 36°07' W 005°24'0 0.0
2018-Feb-19 22:58N 36°07' W 005°24'0 0.0
2018-Feb-19 22:23N 36°07' W 005°24'0 0.0
2018-Feb-19 15:44N 36°07' W 005°24'0 0.0
2018-Feb-19 15:23N 36°07' W 005°24'0 0.0
2018-Feb-19 13:47N 36°07' W 005°24'0 0.0
2018-Feb-19 13:21N 36°07' W 005°24'0 0.0
2018-Feb-19 09:50N 36°07' W 005°24'0 0.0
2018-Feb-19 09:26N 36°07' W 005°24'  
2018-Feb-15 01:34N 36°08' W 005°27'0 0.6
2018-Feb-15 01:30N 36°08' W 005°27'3 4.3
2018-Feb-15 00:48N 36°10' W 005°24'2 7.4
2018-Feb-15 00:30N 36°09' W 005°26'1 2.1
2018-Feb-15 00:00N 36°08' W 005°27'0 0.0
2018-Feb-14 17:23N 36°08' W 005°27'0 0.9
2018-Feb-14 17:00N 36°08' W 005°26'0 0.0
2018-Feb-14 16:30N 36°08' W 005°26'0 0.3
2018-Feb-14 15:59N 36°08' W 005°26'0 0.0
2018-Feb-14 15:30N 36°08' W 005°26'0 0.0
2018-Feb-14 14:57N 36°08' W 005°26'0 0.0
2018-Feb-14 14:30N 36°08' W 005°26'0 0.0
2018-Feb-14 13:30N 36°08' W 005°26'0 0.0
2018-Feb-14 12:55N 36°08' W 005°26'0 0.0
2018-Feb-14 12:29N 36°08' W 005°26'0 0.0
2018-Feb-14 11:51N 36°08' W 005°26'0 0.1
2018-Feb-14 11:30N 36°08' W 005°26'0 0.0
2018-Feb-14 11:00N 36°08' W 005°26'0 0.2
2018-Feb-14 10:30N 36°08' W 005°26'0 0.0
2018-Feb-14 09:57N 36°08' W 005°26'0 0.0
2018-Feb-13 05:39N 36°08' W 005°26'0 0.1
2018-Feb-13 05:29N 36°08' W 005°26'0 0.0
2018-Feb-13 04:59N 36°08' W 005°26'0 0.1
2018-Feb-13 04:30N 36°08' W 005°26'0 0.0
2018-Feb-13 04:00N 36°08' W 005°26'0 0.1
2018-Feb-13 03:30N 36°08' W 005°26'0 0.2
2018-Feb-13 03:00N 36°08' W 005°26'0 0.7
2018-Feb-13 02:30N 36°09' W 005°26'0 1.0
2018-Feb-13 02:00N 36°09' W 005°27'0 0.0
2018-Feb-12 12:48N 36°09' W 005°26'2 5.2
2018-Feb-12 12:21N 36°07' W 005°24'0 0.8
2018-Feb-12 11:59N 36°07' W 005°24'0 0.9
2018-Feb-12 11:30N 36°07' W 005°24'0 0.3
2018-Feb-12 10:19N 36°07' W 005°24'  

Dump ship's entire track history